createdAt,value
2023-06-15T00:00:06.459Z,0.00
2023-06-15T00:01:06.453Z,0.00
2023-06-15T00:02:06.449Z,0.00
2023-06-15T00:03:06.530Z,0.00
2023-06-15T00:04:06.536Z,0.00
2023-06-15T00:05:06.399Z,0.00
2023-06-15T00:06:06.376Z,0.00
2023-06-15T00:07:06.385Z,0.00
2023-06-15T00:08:06.350Z,0.00
2023-06-15T00:09:06.354Z,0.00
2023-06-15T00:10:06.329Z,0.00
2023-06-15T00:11:06.319Z,0.00
2023-06-15T00:12:06.303Z,0.00
2023-06-15T00:13:06.295Z,0.00
2023-06-15T00:14:06.298Z,0.00
2023-06-15T00:15:06.292Z,0.00
2023-06-15T00:16:06.286Z,0.00
2023-06-15T00:17:06.247Z,0.00
2023-06-15T00:18:06.286Z,0.00
2023-06-15T00:19:06.239Z,0.00
2023-06-15T00:20:06.224Z,0.00
2023-06-15T00:21:06.214Z,0.00
2023-06-15T00:22:06.197Z,0.00
2023-06-15T00:23:06.202Z,0.00
2023-06-15T00:24:06.185Z,0.00
2023-06-15T00:25:06.215Z,0.00
2023-06-15T00:26:06.162Z,0.00
2023-06-15T00:27:06.130Z,0.00
2023-06-15T00:28:06.126Z,0.00
2023-06-15T00:29:06.135Z,0.00
2023-06-15T00:30:06.124Z,0.00
2023-06-15T00:31:06.089Z,0.00
2023-06-15T00:32:06.202Z,0.00
2023-06-15T00:33:06.233Z,0.00
2023-06-15T00:34:06.063Z,0.00
2023-06-15T00:35:06.051Z,0.00
2023-06-15T00:36:06.030Z,0.00
2023-06-15T00:37:06.014Z,0.00
2023-06-15T00:38:06.051Z,0.00
2023-06-15T00:39:06.015Z,0.00
2023-06-15T00:40:05.996Z,0.00
2023-06-15T00:41:05.967Z,0.00
2023-06-15T00:42:05.967Z,0.00
2023-06-15T00:43:05.943Z,0.00
2023-06-15T00:44:05.955Z,0.00
2023-06-15T00:45:05.943Z,0.00
2023-06-15T00:46:05.921Z,0.00
2023-06-15T00:47:05.948Z,0.00
2023-06-15T00:48:05.958Z,0.00
2023-06-15T00:49:05.881Z,0.00
2023-06-15T00:50:05.917Z,0.00
2023-06-15T00:51:05.871Z,0.00
2023-06-15T00:52:05.843Z,0.00
2023-06-15T00:53:05.836Z,0.00
2023-06-15T00:54:05.826Z,0.00
2023-06-15T00:55:05.893Z,0.00
2023-06-15T00:56:05.801Z,0.00
2023-06-15T00:57:05.803Z,0.00
2023-06-15T00:58:05.777Z,0.00
2023-06-15T00:59:05.761Z,0.00
2023-06-15T01:00:05.772Z,0.00
2023-06-15T01:01:05.757Z,0.00
2023-06-15T01:02:05.748Z,0.00
2023-06-15T01:03:05.942Z,0.00
2023-06-15T01:04:05.756Z,0.00
2023-06-15T01:05:05.712Z,0.00
2023-06-15T01:06:05.689Z,0.00
2023-06-15T01:07:05.721Z,0.00
2023-06-15T01:08:05.691Z,0.00
2023-06-15T01:09:05.664Z,0.00
2023-06-15T01:10:05.668Z,0.00
2023-06-15T01:11:05.655Z,0.00
2023-06-15T01:12:05.626Z,0.00
2023-06-15T01:13:05.608Z,0.00
2023-06-15T01:14:05.622Z,0.00
2023-06-15T01:15:05.604Z,0.00
2023-06-15T01:16:05.593Z,0.00
2023-06-15T01:17:05.584Z,0.00
2023-06-15T01:18:05.582Z,0.00
2023-06-15T01:19:05.551Z,0.00
2023-06-15T01:20:05.564Z,0.00
2023-06-15T01:21:05.556Z,0.00
2023-06-15T01:22:05.513Z,0.00
2023-06-15T01:23:05.504Z,0.00
2023-06-15T01:24:05.550Z,0.00
2023-06-15T01:25:05.582Z,0.00
2023-06-15T01:26:05.472Z,0.00
2023-06-15T01:27:05.484Z,0.00
2023-06-15T01:28:05.453Z,0.00
2023-06-15T01:29:05.471Z,0.00
2023-06-15T01:30:05.495Z,0.00
2023-06-15T01:31:05.459Z,0.00
2023-06-15T01:32:05.431Z,0.00
2023-06-15T01:33:05.410Z,0.00
2023-06-15T01:34:05.377Z,0.00
2023-06-15T01:35:05.396Z,0.00
2023-06-15T01:36:05.360Z,0.00
2023-06-15T01:37:05.358Z,0.00
2023-06-15T01:38:05.371Z,0.00
2023-06-15T01:39:05.343Z,0.00
2023-06-15T01:40:05.313Z,0.00
2023-06-15T01:41:05.311Z,0.00
2023-06-15T01:42:05.297Z,0.00
2023-06-15T01:43:05.317Z,0.00
2023-06-15T01:44:05.295Z,0.00
2023-06-15T01:45:05.264Z,0.00
2023-06-15T01:46:05.281Z,0.00
2023-06-15T01:47:05.277Z,0.00
2023-06-15T01:48:05.303Z,0.00
2023-06-15T01:49:05.245Z,0.00
2023-06-15T01:50:05.235Z,0.00
2023-06-15T01:51:05.224Z,0.00
2023-06-15T01:52:05.184Z,0.00
2023-06-15T01:53:05.188Z,0.00
2023-06-15T01:54:05.165Z,0.00
2023-06-15T01:55:05.680Z,0.00
2023-06-15T01:56:05.171Z,0.00
2023-06-15T01:57:05.132Z,0.00
2023-06-15T01:58:05.125Z,0.00
2023-06-15T01:59:05.132Z,0.00
2023-06-15T02:00:05.101Z,0.00
2023-06-15T02:01:05.129Z,0.00
2023-06-15T02:02:05.169Z,0.00
2023-06-15T02:03:05.110Z,0.00
2023-06-15T02:04:05.051Z,0.00
2023-06-15T02:05:05.046Z,0.00
2023-06-15T02:06:05.036Z,0.00
2023-06-15T02:07:05.026Z,0.00
2023-06-15T02:08:05.039Z,0.00
2023-06-15T02:09:05.015Z,0.00
2023-06-15T02:10:04.986Z,0.00
2023-06-15T02:11:04.977Z,0.00
2023-06-15T02:12:04.962Z,0.00
2023-06-15T02:13:04.964Z,0.00
2023-06-15T02:14:04.961Z,0.00
2023-06-15T02:15:04.964Z,0.00
2023-06-15T02:16:04.939Z,0.00
2023-06-15T02:17:04.929Z,0.00
2023-06-15T02:18:04.926Z,0.00
2023-06-15T02:19:04.909Z,0.00
2023-06-15T02:20:04.899Z,0.00
2023-06-15T02:21:04.861Z,0.00
2023-06-15T02:22:04.856Z,0.00
2023-06-15T02:23:04.842Z,0.00
2023-06-15T02:24:04.866Z,0.00
2023-06-15T02:25:04.847Z,0.00
2023-06-15T02:26:04.819Z,0.00
2023-06-15T02:27:04.795Z,0.00
2023-06-15T02:28:04.784Z,0.00
2023-06-15T02:29:04.773Z,0.00
2023-06-15T02:30:04.773Z,0.00
2023-06-15T02:31:04.808Z,0.00
2023-06-15T02:32:04.742Z,0.00
2023-06-15T02:33:04.781Z,0.00
2023-06-15T02:34:04.757Z,0.00
2023-06-15T02:35:04.712Z,0.00
2023-06-15T02:36:04.726Z,0.00
2023-06-15T02:37:04.693Z,0.00
2023-06-15T02:38:04.666Z,0.00
2023-06-15T02:39:04.660Z,0.00
2023-06-15T02:40:04.653Z,0.00
2023-06-15T02:41:04.640Z,0.00
2023-06-15T02:42:04.642Z,0.00
2023-06-15T02:43:04.644Z,0.00
2023-06-15T02:44:04.603Z,0.00
2023-06-15T02:45:04.751Z,0.00
2023-06-15T02:46:04.578Z,0.00
2023-06-15T02:47:04.591Z,0.00
2023-06-15T02:48:04.609Z,4.00
2023-06-15T02:49:04.562Z,4.00
2023-06-15T02:50:04.570Z,4.00
2023-06-15T02:51:04.527Z,0.00
2023-06-15T02:52:04.515Z,0.00
2023-06-15T02:53:04.530Z,4.00
2023-06-15T02:54:04.488Z,4.00
2023-06-15T02:55:04.481Z,0.00
2023-06-15T02:56:07.802Z,4.00
2023-06-15T02:57:04.458Z,4.00
2023-06-15T02:58:04.462Z,8.00
2023-06-15T02:59:04.462Z,4.00
2023-06-15T03:00:04.426Z,8.00
2023-06-15T03:01:04.421Z,8.00
2023-06-15T03:02:04.451Z,8.00
2023-06-15T03:03:04.484Z,8.00
2023-06-15T03:04:04.379Z,12.00
2023-06-15T03:05:04.399Z,12.00
2023-06-15T03:06:04.381Z,12.00
2023-06-15T03:07:04.356Z,12.00
2023-06-15T03:08:04.341Z,12.00
2023-06-15T03:09:04.326Z,16.00
2023-06-15T03:10:04.314Z,20.00
2023-06-15T03:11:04.352Z,20.00
2023-06-15T03:12:04.300Z,24.00
2023-06-15T03:13:04.279Z,24.00
2023-06-15T03:14:04.279Z,28.00
2023-06-15T03:15:04.267Z,28.00
2023-06-15T03:16:04.241Z,28.00
2023-06-15T03:17:04.279Z,32.00
2023-06-15T03:18:04.296Z,32.00
2023-06-15T03:19:04.230Z,36.00
2023-06-15T03:20:04.210Z,40.00
2023-06-15T03:21:04.221Z,44.00
2023-06-15T03:22:04.184Z,48.00
2023-06-15T03:23:04.188Z,48.00
2023-06-15T03:24:04.177Z,56.00
2023-06-15T03:25:04.147Z,60.00
2023-06-15T03:26:04.142Z,64.00
2023-06-15T03:27:04.131Z,68.00
2023-06-15T03:28:04.108Z,72.00
2023-06-15T03:29:04.142Z,76.00
2023-06-15T03:30:04.085Z,76.00
2023-06-15T03:31:04.082Z,84.00
2023-06-15T03:32:04.083Z,88.00
2023-06-15T03:33:04.130Z,92.00
2023-06-15T03:34:04.058Z,96.00
2023-06-15T03:35:04.073Z,100.00
2023-06-15T03:36:04.033Z,104.00
2023-06-15T03:37:04.024Z,112.00
2023-06-15T03:38:04.000Z,116.00
2023-06-15T03:39:04.007Z,124.00
2023-06-15T03:40:03.976Z,128.00
2023-06-15T03:41:04.001Z,132.00
2023-06-15T03:42:03.970Z,140.00
2023-06-15T03:43:03.971Z,148.00
2023-06-15T03:44:03.948Z,152.00
2023-06-15T03:45:03.946Z,160.00
2023-06-15T03:46:03.953Z,164.00
2023-06-15T03:47:03.907Z,172.00
2023-06-15T03:48:03.976Z,180.00
2023-06-15T03:49:03.878Z,184.00
2023-06-15T03:50:03.869Z,188.00
2023-06-15T03:51:03.878Z,196.00
2023-06-15T03:52:03.864Z,200.00
2023-06-15T03:53:03.835Z,208.00
2023-06-15T03:54:03.840Z,216.00
2023-06-15T03:55:03.851Z,224.00
2023-06-15T03:56:03.816Z,232.00
2023-06-15T03:57:03.798Z,236.00
2023-06-15T03:58:03.825Z,244.00
2023-06-15T03:59:03.764Z,248.00
2023-06-15T04:00:03.775Z,260.00
2023-06-15T04:01:03.737Z,264.00
2023-06-15T04:02:03.735Z,276.00
2023-06-15T04:03:03.777Z,280.00
2023-06-15T04:04:03.817Z,288.00
2023-06-15T04:05:03.727Z,296.00
2023-06-15T04:06:03.684Z,304.00
2023-06-15T04:07:03.686Z,308.00
2023-06-15T04:08:03.658Z,316.00
2023-06-15T04:09:03.670Z,324.00
2023-06-15T04:10:03.649Z,332.00
2023-06-15T04:11:03.628Z,344.00
2023-06-15T04:12:03.620Z,348.00
2023-06-15T04:13:03.675Z,356.00
2023-06-15T04:14:03.596Z,368.00
2023-06-15T04:15:03.611Z,376.00
2023-06-15T04:16:03.585Z,388.00
2023-06-15T04:17:03.584Z,396.00
2023-06-15T04:18:03.612Z,408.00
2023-06-15T04:19:03.536Z,416.00
2023-06-15T04:20:03.539Z,424.00
2023-06-15T04:21:03.559Z,432.00
2023-06-15T04:22:03.500Z,440.00
2023-06-15T04:23:03.529Z,448.00
2023-06-15T04:24:03.520Z,460.00
2023-06-15T04:25:03.465Z,468.00
2023-06-15T04:26:03.459Z,484.00
2023-06-15T04:27:03.470Z,496.00
2023-06-15T04:28:03.438Z,520.00
2023-06-15T04:29:03.438Z,556.00
2023-06-15T04:30:03.422Z,600.00
2023-06-15T04:31:03.396Z,636.00
2023-06-15T04:32:03.390Z,680.00
2023-06-15T04:33:03.447Z,728.00
2023-06-15T04:34:03.375Z,748.00
2023-06-15T04:35:03.385Z,756.00
2023-06-15T04:36:03.345Z,756.00
2023-06-15T04:37:03.340Z,736.00
2023-06-15T04:38:03.327Z,708.00
2023-06-15T04:39:03.357Z,696.00
2023-06-15T04:40:03.307Z,692.00
2023-06-15T04:41:03.304Z,696.00
2023-06-15T04:42:03.283Z,712.00
2023-06-15T04:43:03.265Z,724.00
2023-06-15T04:44:03.269Z,728.00
2023-06-15T04:45:03.266Z,728.00
2023-06-15T04:46:03.249Z,736.00
2023-06-15T04:47:03.304Z,740.00
2023-06-15T04:48:03.285Z,756.00
2023-06-15T04:49:03.199Z,772.00
2023-06-15T04:50:03.203Z,780.00
2023-06-15T04:51:03.216Z,808.00
2023-06-15T04:52:03.169Z,840.00
2023-06-15T04:53:03.170Z,844.00
2023-06-15T04:54:03.162Z,848.00
2023-06-15T04:55:03.157Z,856.00
2023-06-15T04:56:03.136Z,856.00
2023-06-15T04:57:03.108Z,860.00
2023-06-15T04:58:03.142Z,860.00
2023-06-15T04:59:03.088Z,852.00
2023-06-15T05:00:03.076Z,872.00
2023-06-15T05:01:03.062Z,892.00
2023-06-15T05:02:03.117Z,900.00
2023-06-15T05:03:03.076Z,912.00
2023-06-15T05:04:03.066Z,924.00
2023-06-15T05:05:03.015Z,916.00
2023-06-15T05:06:03.023Z,920.00
2023-06-15T05:07:03.003Z,908.00
2023-06-15T05:08:02.982Z,912.00
2023-06-15T05:09:02.967Z,904.00
2023-06-15T05:10:02.973Z,908.00
2023-06-15T05:11:02.983Z,924.00
2023-06-15T05:12:02.940Z,936.00
2023-06-15T05:13:02.927Z,932.00
2023-06-15T05:14:02.919Z,928.00
2023-06-15T05:15:02.931Z,932.00
2023-06-15T05:16:02.924Z,936.00
2023-06-15T05:17:02.879Z,956.00
2023-06-15T05:18:02.915Z,980.00
2023-06-15T05:19:02.863Z,1004.00
2023-06-15T05:20:02.853Z,1040.00
2023-06-15T05:21:02.872Z,1084.00
2023-06-15T05:22:02.863Z,1128.00
2023-06-15T05:23:02.814Z,1172.00
2023-06-15T05:24:02.863Z,1232.00
2023-06-15T05:25:02.799Z,1312.00
2023-06-15T05:26:03.474Z,1408.00
2023-06-15T05:27:02.799Z,1496.00
2023-06-15T05:28:02.783Z,1568.00
2023-06-15T05:29:02.747Z,1644.00
2023-06-15T05:30:02.739Z,1724.00
2023-06-15T05:31:02.723Z,1812.00
2023-06-15T05:32:02.742Z,1900.00
2023-06-15T05:33:02.761Z,1992.00
2023-06-15T05:34:02.703Z,2080.00
2023-06-15T05:35:02.683Z,2144.00
2023-06-15T05:36:11.918Z,2192.00
2023-06-15T05:37:03.698Z,2236.00
2023-06-15T05:38:02.655Z,2260.00
2023-06-15T05:39:02.638Z,2300.00
2023-06-15T05:40:02.636Z,2324.00
2023-06-15T05:41:02.650Z,2344.00
2023-06-15T05:42:02.655Z,2372.00
2023-06-15T05:43:02.785Z,2396.00
2023-06-15T05:44:02.581Z,2428.00
2023-06-15T05:45:02.574Z,2460.00
2023-06-15T05:46:02.563Z,2488.00
2023-06-15T05:47:02.548Z,2520.00
2023-06-15T05:48:02.549Z,2532.00
2023-06-15T05:49:02.553Z,2556.00
2023-06-15T05:50:02.517Z,2572.00
2023-06-15T05:51:02.559Z,2592.00
2023-06-15T05:52:02.504Z,2612.00
2023-06-15T05:53:02.511Z,2636.00
2023-06-15T05:54:02.491Z,2652.00
2023-06-15T05:55:02.486Z,2680.00
2023-06-15T05:57:02.435Z,2708.00
2023-06-15T05:58:02.428Z,2736.00
2023-06-15T05:59:02.427Z,2760.00
2023-06-15T06:00:02.433Z,2780.00
2023-06-15T06:01:02.415Z,2796.00
2023-06-15T06:02:02.649Z,2820.00
2023-06-15T06:03:02.454Z,2840.00
2023-06-15T06:04:02.360Z,2860.00
2023-06-15T06:05:02.344Z,2884.00
2023-06-15T06:06:02.415Z,2900.00
2023-06-15T06:07:02.351Z,2916.00
2023-06-15T06:08:02.320Z,2948.00
2023-06-15T06:09:02.307Z,2968.00
2023-06-15T06:10:02.297Z,2996.00
2023-06-15T06:11:02.292Z,3028.00
2023-06-15T06:12:02.269Z,3048.00
2023-06-15T06:13:02.279Z,3076.00
2023-06-15T06:14:02.261Z,3088.00
2023-06-15T06:15:02.274Z,3108.00
2023-06-15T06:16:02.225Z,3120.00
2023-06-15T06:17:02.214Z,3156.00
2023-06-15T06:18:09.090Z,3164.00
2023-06-15T06:19:03.214Z,3192.00
2023-06-15T06:20:02.211Z,3184.00
2023-06-15T06:21:02.176Z,3192.00
2023-06-15T06:22:02.155Z,3248.00
2023-06-15T06:23:02.162Z,3264.00
2023-06-15T06:24:02.200Z,3308.00
2023-06-15T06:25:02.144Z,3352.00
2023-06-15T06:26:02.118Z,3412.00
2023-06-15T06:27:02.100Z,3428.00
2023-06-15T06:28:02.102Z,3484.00
2023-06-15T06:29:02.082Z,3556.00
2023-06-15T06:30:02.107Z,3632.00
2023-06-15T06:31:02.095Z,4564.00
2023-06-15T06:32:02.059Z,7900.00
2023-06-15T06:33:02.327Z,10168.00
2023-06-15T06:34:02.025Z,10424.00
2023-06-15T06:35:02.009Z,10556.00
2023-06-15T06:36:02.019Z,10596.00
2023-06-15T06:37:02.009Z,10468.00
2023-06-15T06:38:01.992Z,9904.00
2023-06-15T06:39:03.239Z,8212.00
2023-06-15T06:40:01.967Z,6564.00
2023-06-15T06:41:01.949Z,5896.00
2023-06-15T06:42:01.943Z,5800.00
2023-06-15T06:43:01.957Z,5760.00
2023-06-15T06:44:01.923Z,5824.00
2023-06-15T06:45:01.915Z,5900.00
2023-06-15T06:46:01.896Z,5952.00
2023-06-15T06:47:01.953Z,5756.00
2023-06-15T06:48:01.931Z,5216.00
2023-06-15T06:49:01.885Z,4776.00
2023-06-15T06:50:01.862Z,4680.00
2023-06-15T06:51:01.836Z,4756.00
2023-06-15T06:52:01.843Z,4932.00
2023-06-15T06:53:01.815Z,5188.00
2023-06-15T06:54:01.807Z,6020.00
2023-06-15T06:55:01.808Z,7844.00
2023-06-15T06:56:01.795Z,19360.00
2023-06-15T06:57:01.819Z,30400.00
2023-06-15T06:58:01.775Z,31680.00
2023-06-15T06:59:01.749Z,29568.00
2023-06-15T07:00:01.751Z,24576.00
2023-06-15T07:01:01.743Z,15712.00
2023-06-15T07:02:01.754Z,8388.00
2023-06-15T07:03:01.803Z,8156.00
2023-06-15T07:04:01.735Z,9156.00
2023-06-15T07:05:01.693Z,8100.00
2023-06-15T07:06:01.675Z,7680.00
2023-06-15T07:07:01.654Z,8148.00
2023-06-15T07:08:01.650Z,11292.00
2023-06-15T07:09:01.678Z,21344.00
2023-06-15T07:10:01.628Z,29728.00
2023-06-15T07:11:01.614Z,35328.00
2023-06-15T07:12:01.723Z,38464.00
2023-06-15T07:13:01.601Z,43264.00
2023-06-15T07:14:01.592Z,46688.00
2023-06-15T07:15:01.729Z,44064.00
2023-06-15T07:16:01.563Z,45184.00
2023-06-15T07:17:01.553Z,46144.00
2023-06-15T07:18:01.583Z,49312.00
2023-06-15T07:19:01.562Z,50912.00
2023-06-15T07:20:01.544Z,51456.00
2023-06-15T07:21:01.504Z,49664.00
2023-06-15T07:22:01.521Z,24704.00
2023-06-15T07:23:01.495Z,17952.00
2023-06-15T07:24:01.509Z,6612.00
2023-06-15T07:25:01.463Z,6416.00
2023-06-15T07:26:01.470Z,6092.00
2023-06-15T07:27:01.443Z,5772.00
2023-06-15T07:28:01.434Z,5540.00
2023-06-15T07:29:01.420Z,5368.00
2023-06-15T07:30:01.415Z,5272.00
2023-06-15T07:31:01.397Z,5272.00
2023-06-15T07:32:01.451Z,5216.00
2023-06-15T07:33:01.424Z,5084.00
2023-06-15T07:34:01.369Z,48448.00
2023-06-15T07:35:01.425Z,5008.00
2023-06-15T07:36:01.346Z,5020.00
2023-06-15T07:37:01.510Z,4892.00
2023-06-15T07:38:01.344Z,5248.00
2023-06-15T07:39:01.317Z,5728.00
2023-06-15T07:40:01.301Z,5984.00
2023-06-15T07:41:01.333Z,5524.00
2023-06-15T07:42:01.284Z,5584.00
2023-06-15T07:43:01.306Z,5524.00
2023-06-15T07:44:01.264Z,5232.00
2023-06-15T07:45:01.246Z,5284.00
2023-06-15T07:46:01.245Z,6628.00
2023-06-15T07:47:01.229Z,5808.00
2023-06-15T07:48:01.288Z,5620.00
2023-06-15T07:49:01.218Z,5800.00
2023-06-15T07:50:01.209Z,5688.00
2023-06-15T07:51:01.332Z,5812.00
2023-06-15T07:52:09.526Z,6088.00
2023-06-15T07:53:02.179Z,6116.00
2023-06-15T07:54:01.183Z,6512.00
2023-06-15T07:55:01.169Z,6284.00
2023-06-15T07:56:01.143Z,6596.00
2023-06-15T07:57:01.123Z,6912.00
2023-06-15T07:58:01.119Z,6304.00
2023-06-15T07:59:01.156Z,7064.00
2023-06-15T08:00:01.126Z,7228.00
2023-06-15T08:01:01.079Z,7128.00
2023-06-15T08:02:01.067Z,7504.00
2023-06-15T08:03:01.205Z,7524.00
2023-06-15T08:04:01.077Z,7160.00
2023-06-15T08:05:01.083Z,7744.00
2023-06-15T08:06:01.030Z,7752.00
2023-06-15T08:07:01.309Z,7956.00
2023-06-15T08:08:01.004Z,7944.00
2023-06-15T08:09:01.026Z,7712.00
2023-06-15T08:10:00.994Z,7820.00
2023-06-15T08:11:01.002Z,7936.00
2023-06-15T08:12:00.980Z,8116.00
2023-06-15T08:13:00.964Z,8216.00
2023-06-15T08:14:00.949Z,8196.00
2023-06-15T08:15:00.937Z,8212.00
2023-06-15T08:16:00.970Z,8336.00
2023-06-15T08:17:00.909Z,8524.00
2023-06-15T08:18:00.926Z,8600.00
2023-06-15T08:19:00.887Z,5464.00
2023-06-15T08:20:00.881Z,5680.00
2023-06-15T08:21:00.866Z,5688.00
2023-06-15T08:22:00.876Z,5800.00
2023-06-15T08:23:00.876Z,9164.00
2023-06-15T08:24:00.903Z,9104.00
2023-06-15T08:25:00.829Z,9068.00
2023-06-15T08:26:00.818Z,8876.00
2023-06-15T08:27:00.807Z,8492.00
2023-06-15T08:28:00.851Z,8260.00
2023-06-15T08:29:13.609Z,7208.00
2023-06-15T08:30:01.778Z,6952.00
2023-06-15T08:31:00.764Z,7324.00
2023-06-15T08:32:00.749Z,6908.00
2023-06-15T08:33:00.759Z,6864.00
2023-06-15T08:34:00.740Z,6740.00
2023-06-15T08:35:00.732Z,6604.00
2023-06-15T08:36:00.702Z,6636.00
2023-06-15T08:37:00.698Z,6484.00
2023-06-15T08:38:00.692Z,6376.00
2023-06-15T08:39:00.735Z,6228.00
2023-06-15T08:40:00.660Z,6208.00
2023-06-15T08:41:00.724Z,6128.00
2023-06-15T08:42:00.641Z,6124.00
2023-06-15T08:43:00.636Z,6060.00
2023-06-15T08:44:00.623Z,6048.00
2023-06-15T08:45:00.628Z,6032.00
2023-06-15T08:46:00.596Z,6064.00
2023-06-15T08:47:00.589Z,7992.00
2023-06-15T08:48:00.589Z,8032.00
2023-06-15T08:49:00.567Z,8024.00
2023-06-15T08:50:00.555Z,8116.00
2023-06-15T08:51:00.571Z,8184.00
2023-06-15T08:52:00.532Z,8260.00
2023-06-15T08:53:00.526Z,6324.00
2023-06-15T08:54:00.514Z,6372.00
2023-06-15T08:55:00.535Z,6432.00
2023-06-15T08:56:00.497Z,6484.00
2023-06-15T08:57:00.533Z,6540.00
2023-06-15T08:58:00.465Z,6584.00
2023-06-15T08:59:00.468Z,6612.00
2023-06-15T09:00:00.450Z,6724.00
2023-06-15T09:01:00.449Z,6760.00
2023-06-15T09:02:00.438Z,6756.00
2023-06-15T09:03:00.493Z,6940.00
2023-06-15T09:04:00.446Z,7068.00
2023-06-15T09:05:00.408Z,7172.00
2023-06-15T09:06:00.381Z,7408.00
2023-06-15T09:07:00.396Z,76448.00
2023-06-15T09:08:00.358Z,14528.00
2023-06-15T09:09:00.364Z,7232.00
2023-06-15T09:10:00.340Z,7412.00
2023-06-15T09:11:00.357Z,7132.00
2023-06-15T09:12:00.323Z,7240.00
2023-06-15T09:13:00.315Z,7232.00
2023-06-15T09:14:00.334Z,7136.00
2023-06-15T09:15:00.289Z,7180.00
2023-06-15T09:16:00.283Z,7132.00
2023-06-15T09:17:00.271Z,7176.00
2023-06-15T09:18:00.327Z,7208.00
2023-06-15T09:19:00.262Z,7240.00
2023-06-15T09:20:00.235Z,8880.00
2023-06-15T09:21:00.223Z,7112.00
2023-06-15T09:22:00.212Z,7212.00
2023-06-15T09:23:00.274Z,7328.00
2023-06-15T09:24:00.305Z,7300.00
2023-06-15T09:25:00.206Z,7276.00
2023-06-15T09:26:00.169Z,7280.00
2023-06-15T09:27:00.183Z,7296.00
2023-06-15T09:28:00.181Z,7580.00
2023-06-15T09:29:00.164Z,7372.00
2023-06-15T09:30:00.169Z,7468.00
2023-06-15T09:31:00.132Z,7420.00
2023-06-15T09:32:00.126Z,7588.00
2023-06-15T09:33:00.132Z,7944.00
2023-06-15T09:34:00.139Z,9076.00
2023-06-15T09:35:00.079Z,9928.00
2023-06-15T09:36:00.125Z,10876.00
2023-06-15T09:37:00.054Z,12960.00
2023-06-15T09:38:00.042Z,13568.00
2023-06-15T09:39:00.036Z,130688.00
2023-06-15T09:40:00.018Z,7576.00
2023-06-15T09:41:00.012Z,51264.00
2023-06-15T09:42:00.411Z,49984.00
2023-06-15T09:43:00.026Z,62368.00
2023-06-15T09:43:59.976Z,12608.00
2023-06-15T09:44:59.969Z,68160.00
2023-06-15T09:45:59.952Z,13520.00
2023-06-15T09:47:00.889Z,7144.00
2023-06-15T09:47:59.994Z,4776.00
2023-06-15T09:48:59.939Z,3400.00
2023-06-15T09:49:59.916Z,3040.00
2023-06-15T09:50:59.910Z,2576.00
2023-06-15T09:51:59.893Z,2512.00
2023-06-15T09:52:59.884Z,2256.00
2023-06-15T09:53:59.895Z,1936.00
2023-06-15T09:54:59.866Z,2012.00
2023-06-15T09:55:59.857Z,2168.00
2023-06-15T09:56:59.842Z,1768.00
2023-06-15T09:57:59.836Z,1556.00
2023-06-15T09:58:59.924Z,1512.00
2023-06-15T09:59:59.807Z,1536.00
2023-06-15T10:00:59.798Z,1584.00
2023-06-15T10:01:59.797Z,1604.00
2023-06-15T10:02:59.845Z,1772.00
2023-06-15T10:03:59.785Z,2188.00
2023-06-15T10:04:59.775Z,3196.00
2023-06-15T10:05:59.747Z,6308.00
2023-06-15T10:06:59.736Z,4916.00
2023-06-15T10:07:59.718Z,41856.00
2023-06-15T10:08:59.713Z,85152.00
2023-06-15T10:09:59.698Z,82752.00
2023-06-15T10:10:59.710Z,6896.00
2023-06-15T10:11:59.680Z,3408.00
2023-06-15T10:12:59.668Z,2840.00
2023-06-15T10:13:59.655Z,2484.00
2023-06-15T10:14:59.686Z,2408.00
2023-06-15T10:15:59.633Z,2388.00
2023-06-15T10:16:59.661Z,2572.00
2023-06-15T10:17:59.629Z,3080.00
2023-06-15T10:18:59.604Z,5280.00
2023-06-15T10:19:59.589Z,81248.00
2023-06-15T10:20:59.590Z,85984.00
2023-06-15T10:21:59.570Z,84320.00
2023-06-15T10:22:59.626Z,88320.00
2023-06-15T10:23:59.582Z,66528.00
2023-06-15T10:24:59.542Z,94688.00
2023-06-15T10:25:59.529Z,91040.00
2023-06-15T10:26:59.522Z,88576.00
2023-06-15T10:27:59.505Z,60128.00
2023-06-15T10:28:59.522Z,59072.00
2023-06-15T10:29:59.483Z,8164.00
2023-06-15T10:30:59.575Z,23136.00
2023-06-15T10:31:59.466Z,9356.00
2023-06-15T10:32:59.474Z,8424.00
2023-06-15T10:33:59.450Z,6336.00
2023-06-15T10:34:59.473Z,17120.00
2023-06-15T10:35:59.424Z,82592.00
2023-06-15T10:36:59.424Z,90080.00
2023-06-15T10:37:59.401Z,90656.00
2023-06-15T10:38:59.394Z,93952.00
2023-06-15T10:39:59.381Z,98432.00
2023-06-15T10:40:59.409Z,89856.00
2023-06-15T10:41:59.363Z,86688.00
2023-06-15T10:42:59.354Z,94368.00
2023-06-15T10:43:59.340Z,91936.00
2023-06-15T10:44:59.333Z,25056.00
2023-06-15T10:45:59.334Z,62176.00
2023-06-15T10:46:59.340Z,51968.00
2023-06-15T10:47:59.323Z,6224.00
2023-06-15T10:48:59.292Z,8204.00
2023-06-15T10:50:00.764Z,19616.00
2023-06-15T10:50:59.289Z,6516.00
2023-06-15T10:51:59.276Z,6516.00
2023-06-15T10:52:59.254Z,5320.00
2023-06-15T10:53:59.237Z,5924.00
2023-06-15T10:54:59.238Z,5616.00
2023-06-15T10:55:59.264Z,9696.00
2023-06-15T10:56:59.206Z,39232.00
2023-06-15T10:57:59.199Z,86688.00
2023-06-15T10:58:59.194Z,82816.00
2023-06-15T10:59:59.258Z,76704.00
2023-06-15T11:00:59.203Z,57472.00
2023-06-15T11:01:59.151Z,33568.00
2023-06-15T11:02:59.193Z,15616.00
2023-06-15T11:03:59.183Z,11568.00
2023-06-15T11:04:59.163Z,10596.00
2023-06-15T11:05:59.112Z,10124.00
2023-06-15T11:07:01.505Z,12256.00
2023-06-15T11:07:59.091Z,13504.00
2023-06-15T11:08:59.081Z,13440.00
2023-06-15T11:09:59.069Z,14616.00
2023-06-15T11:10:59.074Z,12824.00
2023-06-15T11:11:59.051Z,13004.00
2023-06-15T11:12:59.054Z,12992.00
2023-06-15T11:13:59.032Z,11508.00
2023-06-15T11:14:59.022Z,11428.00
2023-06-15T11:15:59.008Z,12264.00
2023-06-15T11:16:59.018Z,8916.00
2023-06-15T11:17:59.080Z,5160.00
2023-06-15T11:18:59.009Z,4516.00
2023-06-15T11:19:58.964Z,3920.00
2023-06-15T11:20:58.962Z,3488.00
2023-06-15T11:21:58.961Z,3336.00
2023-06-15T11:22:58.935Z,3100.00
2023-06-15T11:23:59.061Z,2848.00
2023-06-15T11:24:58.921Z,2520.00
2023-06-15T11:25:58.910Z,2336.00
2023-06-15T11:26:58.916Z,2260.00
2023-06-15T11:27:58.907Z,2340.00
2023-06-15T11:28:58.877Z,2500.00
2023-06-15T11:29:58.860Z,2868.00
2023-06-15T11:30:58.860Z,3368.00
2023-06-15T11:31:58.847Z,3664.00
2023-06-15T11:32:58.891Z,3808.00
2023-06-15T11:33:58.821Z,4304.00
2023-06-15T11:34:58.831Z,4216.00
2023-06-15T11:36:01.510Z,4104.00
2023-06-15T11:36:58.811Z,4032.00
2023-06-15T11:37:58.774Z,5824.00
2023-06-15T11:38:58.770Z,5388.00
2023-06-15T11:39:58.757Z,5152.00
2023-06-15T11:40:58.746Z,5088.00
2023-06-15T11:41:58.780Z,5104.00
2023-06-15T11:42:58.729Z,5124.00
2023-06-15T11:43:58.720Z,5156.00
2023-06-15T11:44:58.710Z,5164.00
2023-06-15T11:45:58.713Z,4968.00
2023-06-15T11:46:58.685Z,5188.00
2023-06-15T11:47:58.748Z,5188.00
2023-06-15T11:48:58.778Z,5344.00
2023-06-15T11:49:58.646Z,5240.00
2023-06-15T11:50:58.667Z,5136.00
2023-06-15T11:51:58.640Z,5216.00
2023-06-15T11:52:58.616Z,5260.00
2023-06-15T11:53:58.661Z,5344.00
2023-06-15T11:54:59.397Z,5280.00
2023-06-15T11:55:58.583Z,5248.00
2023-06-15T11:56:58.581Z,4896.00
2023-06-15T11:57:58.561Z,5180.00
2023-06-15T11:58:58.583Z,5224.00
2023-06-15T11:59:58.538Z,5236.00
2023-06-15T12:00:58.548Z,5296.00
2023-06-15T12:01:58.526Z,5576.00
2023-06-15T12:02:58.529Z,5952.00
2023-06-15T12:04:05.968Z,6484.00
2023-06-15T12:04:59.562Z,6860.00
2023-06-15T12:05:58.517Z,7120.00
2023-06-15T12:06:58.560Z,7000.00
2023-06-15T12:07:58.457Z,6944.00
2023-06-15T12:08:58.509Z,4816.00
2023-06-15T12:09:58.492Z,5284.00
2023-06-15T12:10:58.423Z,4684.00
2023-06-15T12:11:58.431Z,6332.00
2023-06-15T12:12:58.403Z,6064.00
2023-06-15T12:13:58.395Z,6264.00
2023-06-15T12:14:58.385Z,5712.00
2023-06-15T12:15:58.510Z,4292.00
2023-06-15T12:16:58.359Z,4188.00
2023-06-15T12:17:58.398Z,4220.00
2023-06-15T12:18:58.334Z,4752.00
2023-06-15T12:19:58.329Z,6364.00
2023-06-15T12:20:58.338Z,6412.00
2023-06-15T12:21:58.305Z,6088.00
2023-06-15T12:22:58.318Z,4980.00
2023-06-15T12:23:58.291Z,4752.00
2023-06-15T12:24:58.272Z,5140.00